Time;durP1;ratioP1;P1;durP2;ratioP2;P2;SDS_P1;SDS_P2;PMS_P1;PMS_P2;Temp;Humidity;BMP_temperature;BMP_pressure;BME280_temperature;BME280_humidity;BME280_pressure;Samples;Min_cycle;Max_cycle;Signal;HPM_P1;HPM_P2
2022/05/14 00:01:06;;;;;;;5.43;2.70;;;;;;;9.59;57.49;98241.56;5077162;28;20047;-65
2022/05/14 00:03:33;;;;;;;6.85;3.08;;;;;;;9.60;57.30;98248.53;5075646;28;20054;-63
2022/05/14 00:06:02;;;;;;;8.45;3.25;;;;;;;9.58;57.05;98237.22;5075294;28;20043;-63
2022/05/14 00:08:29;;;;;;;4.57;2.65;;;;;;;9.59;57.50;98236.22;5053121;28;20101;-65
2022/05/14 00:13:38;;;;;;;6.03;2.55;;;;;;;9.54;57.66;98244.63;5070072;28;20532;-66
2022/05/14 00:16:04;;;;;;;3.63;2.58;;;;;;;9.53;57.30;98248.25;5058211;28;20067;-66
2022/05/14 00:18:29;;;;;;;7.50;3.78;;;;;;;9.50;57.38;98237.03;5058086;28;20043;-65
2022/05/14 00:20:54;;;;;;;4.85;3.28;;;;;;;9.48;57.38;98239.00;5058004;28;20088;-68
2022/05/14 00:23:19;;;;;;;8.35;4.65;;;;;;;9.43;57.31;98242.06;5058370;28;20710;-70
2022/05/14 00:25:44;;;;;;;4.22;3.10;;;;;;;9.42;57.41;98246.53;5042272;28;20047;-69
2022/05/14 00:28:09;;;;;;;3.70;2.35;;;;;;;9.43;57.72;98242.06;5058163;28;20039;-68
2022/05/14 00:30:36;;;;;;;4.68;2.75;;;;;;;9.45;57.62;98248.09;5076539;28;20058;-69
2022/05/14 00:33:01;;;;;;;5.75;2.63;;;;;;;9.38;57.99;98250.44;5058046;28;20088;-68
2022/05/14 00:35:26;;;;;;;6.03;2.80;;;;;;;9.38;58.33;98238.97;5058219;28;20051;-68
2022/05/14 00:37:52;;;;;;;5.05;2.45;;;;;;;9.40;58.31;98242.34;5040546;28;20040;-69
2022/05/14 00:40:25;;;;;;;4.95;2.75;;;;;;;9.41;58.57;98238.69;5058040;28;20051;-69
2022/05/14 00:42:52;;;;;;;5.60;2.42;;;;;;;9.39;57.43;98240.66;5075971;28;20502;-70
2022/05/14 00:45:17;;;;;;;3.03;2.25;;;;;;;9.37;58.09;98245.25;5057688;28;20040;-69
2022/05/14 00:47:45;;;;;;;6.90;2.67;;;;;;;9.37;58.22;98237.28;5057997;28;20066;-67
2022/05/14 00:50:22;;;;;;;5.35;2.90;;;;;;;9.36;58.11;98239.13;5024790;28;20039;-69
2022/05/14 00:52:47;;;;;;;5.65;2.83;;;;;;;9.34;58.61;98234.91;5076075;28;20043;-70
2022/05/14 00:55:12;;;;;;;5.50;2.45;;;;;;;9.35;58.83;98234.78;5057636;28;20399;-70
2022/05/14 00:57:40;;;;;;;7.57;2.88;;;;;;;9.34;58.07;98229.59;5076296;28;20452;-68
2022/05/14 01:00:12;;;;;;;6.43;2.78;;;;;;;9.32;58.76;98220.91;5057894;28;20196;-70
2022/05/14 01:02:38;;;;;;;7.65;2.80;;;;;;;9.31;58.49;98227.19;5060069;27;20042;-68
2022/05/14 01:05:04;;;;;;;3.53;2.20;;;;;;;9.23;58.88;98229.69;5078059;27;20035;-69
2022/05/14 01:07:31;;;;;;;7.78;3.13;;;;;;;9.28;58.48;98232.78;5059349;28;20048;-70
2022/05/14 01:10:03;;;;;;;4.40;2.28;;;;;;;9.31;58.65;98230.69;5023394;28;20046;-70
2022/05/14 01:12:30;;;;;;;5.50;3.05;;;;;;;9.30;58.44;98226.34;5023682;28;20134;-73
2022/05/14 01:15:06;;;;;;;7.05;2.67;;;;;;;9.32;59.23;98224.41;5074963;28;20063;-70
2022/05/14 01:17:31;;;;;;;12.25;2.58;;;;;;;9.28;58.83;98219.47;5057507;28;20047;-72
2022/05/14 01:19:57;;;;;;;13.75;3.58;;;;;;;9.25;58.98;98217.97;5040164;28;20075;-70
2022/05/14 01:22:44;;;;;;;5.10;2.83;;;;;;;9.41;59.13;98222.75;5079000;27;20078;-65
2022/05/14 01:28:38;;;;;;;4.40;2.60;;;;;;;9.30;58.63;98222.84;5059401;27;20069;-71
2022/05/14 01:31:05;;;;;;;7.15;2.67;;;;;;;9.32;58.61;98218.25;5060789;27;20098;-70
2022/05/14 01:33:34;;;;;;;12.07;3.38;;;;;;;9.33;59.04;98222.59;5057029;28;20039;-69
2022/05/14 01:35:59;;;;;;;3.53;2.13;;;;;;;9.33;58.42;98220.78;5053525;28;20040;-66
2022/05/14 01:38:24;;;;;;;5.00;2.42;;;;;;;9.35;58.44;98225.97;5057089;28;20146;-66
2022/05/14 01:40:49;;;;;;;2.92;1.92;;;;;;;9.37;58.29;98231.97;5073991;28;20118;-67
2022/05/14 01:43:15;;;;;;;6.03;2.47;;;;;;;9.40;58.83;98219.25;5074962;28;20047;-67
2022/05/14 01:45:41;;;;;;;4.95;2.97;;;;;;;9.39;58.60;98220.22;5074115;28;20047;-65
2022/05/14 01:48:06;;;;;;;6.28;2.60;;;;;;;9.43;58.94;98218.13;5073642;28;20044;-64
2022/05/14 01:50:31;;;;;;;7.65;2.80;;;;;;;9.41;58.97;98223.56;5057475;28;20497;-65
2022/05/14 01:52:56;;;;;;;5.05;2.47;;;;;;;9.45;58.60;98221.50;5075490;28;20571;-63
2022/05/14 01:55:22;;;;;;;6.75;3.25;;;;;;;9.49;58.93;98225.53;5073781;28;20409;-63
2022/05/14 01:57:46;;;;;;;8.13;2.28;;;;;;;9.56;58.32;98221.38;5057106;28;20455;-63
2022/05/14 02:00:14;;;;;;;7.78;2.58;;;;;;;9.63;58.27;98227.81;5057242;28;20566;-63
2022/05/14 02:02:39;;;;;;;8.13;2.25;;;;;;;9.76;57.70;98227.56;5075020;28;20039;-61
2022/05/14 02:05:07;;;;;;;4.38;2.20;;;;;;;9.86;57.86;98228.41;5073874;28;20134;-64
2022/05/14 02:07:31;;;;;;;8.45;2.55;;;;;;;9.94;56.89;98233.84;5040368;28;20047;-63
2022/05/14 02:09:56;;;;;;;6.22;3.00;;;;;;;9.96;57.07;98231.91;5075236;28;20093;-65
2022/05/14 02:12:21;;;;;;;6.78;2.50;;;;;;;10.06;57.45;98226.56;5041680;28;20050;-66
2022/05/14 02:14:46;;;;;;;4.40;2.33;;;;;;;10.14;57.28;98230.22;5075683;28;20143;-64
2022/05/14 02:17:11;;;;;;;5.68;2.20;;;;;;;10.28;56.33;98228.97;5059400;28;20043;-65
2022/05/14 02:19:36;;;;;;;7.88;2.35;;;;;;;10.37;56.52;98237.94;5062352;28;20051;-66
2022/05/14 02:22:00;;;;;;;2.67;1.90;;;;;;;10.45;56.39;98233.56;5067540;28;20039;-64
2022/05/14 02:24:25;;;;;;;4.10;2.33;;;;;;;10.57;56.03;98222.75;5080946;28;20051;-65
2022/05/14 02:26:50;;;;;;;5.05;2.20;;;;;;;10.70;55.57;98225.94;5080049;28;20044;-64
2022/05/14 02:29:16;;;;;;;12.73;2.85;;;;;;;10.79;55.25;98230.41;5079355;28;20561;-62
2022/05/14 02:31:41;;;;;;;4.38;2.45;;;;;;;10.84;55.01;98236.13;5045504;28;20046;-62
2022/05/14 02:34:06;;;;;;;5.25;2.35;;;;;;;10.93;54.82;98229.94;5043390;28;20130;-63
2022/05/14 02:36:31;;;;;;;6.70;2.55;;;;;;;10.99;54.63;98242.66;5078884;28;20047;-62
2022/05/14 02:38:56;;;;;;;3.92;2.42;;;;;;;11.05;54.63;98239.44;5060526;28;20139;-62
2022/05/14 02:41:20;;;;;;;6.07;2.63;;;;;;;11.14;54.51;98238.56;5060859;28;20049;-62
2022/05/14 02:43:45;;;;;;;4.25;2.72;;;;;;;11.23;54.04;98239.47;5077410;28;20049;-64
2022/05/14 02:46:12;;;;;;;9.90;2.97;;;;;;;11.33;54.02;98231.44;5077257;28;20039;-66
2022/05/14 02:48:38;;;;;;;6.65;2.20;;;;;;;11.46;54.01;98232.75;5061011;28;20043;-64
2022/05/14 02:51:05;;;;;;;4.82;2.15;;;;;;;11.57;53.62;98232.56;5077601;28;20039;-66
2022/05/14 02:53:31;;;;;;;11.10;2.63;;;;;;;11.64;52.91;98235.44;5078821;28;20487;-63
2022/05/14 02:55:55;;;;;;;2.67;1.88;;;;;;;11.74;52.82;98235.41;5043508;28;20506;-63
2022/05/14 03:01:06;;;;;;;9.68;2.72;;;;;;;11.93;52.27;98232.63;5079695;28;20036;-64
2022/05/14 03:03:31;;;;;;;4.00;2.42;;;;;;;12.08;52.15;98232.91;5079703;28;20125;-62
2022/05/14 03:05:56;;;;;;;8.60;1.77;;;;;;;12.20;51.88;98237.84;5080682;28;20122;-62
2022/05/14 03:08:21;;;;;;;8.57;2.63;;;;;;;12.29;51.23;98239.63;5079113;28;20136;-63
2022/05/14 03:10:46;;;;;;;3.40;2.22;;;;;;;12.38;50.73;98243.19;5080723;28;20521;-62
2022/05/14 03:13:11;;;;;;;2.50;1.63;;;;;;;12.45;51.00;98230.03;5079015;28;20053;-66
2022/05/14 03:15:36;;;;;;;4.93;1.65;;;;;;;12.54;50.71;98237.97;5060509;28;20052;-66
2022/05/14 03:18:00;;;;;;;5.50;1.90;;;;;;;12.61;50.59;98232.84;5060964;28;20134;-66
2022/05/14 03:20:25;;;;;;;4.88;2.22;;;;;;;12.67;50.69;98226.84;5061855;28;20048;-66
2022/05/14 03:22:52;;;;;;;2.35;2.15;;;;;;;12.78;50.21;98228.41;5044138;28;20043;-63
2022/05/14 03:25:16;;;;;;;5.32;2.38;;;;;;;12.89;49.58;98238.84;5076911;28;20039;-63
2022/05/14 03:27:41;;;;;;;4.45;2.38;;;;;;;12.99;49.67;98240.41;5080953;27;20047;-67
2022/05/14 03:30:07;;;;;;;2.67;1.65;;;;;;;13.06;49.45;98240.63;5061364;28;20055;-67
2022/05/14 03:32:31;;;;;;;5.78;2.40;;;;;;;13.19;49.47;98242.91;5060786;28;20047;-63
2022/05/14 03:34:58;;;;;;;3.53;1.70;;;;;;;13.17;48.40;98237.72;5078365;28;20051;-64
2022/05/14 03:37:23;;;;;;;5.13;1.73;;;;;;;13.21;49.03;98243.56;5078056;28;20035;-65
2022/05/14 03:39:48;;;;;;;3.33;1.88;;;;;;;13.22;48.68;98247.91;5043029;28;20047;-63
2022/05/14 03:42:13;;;;;;;4.20;2.25;;;;;;;13.19;48.71;98249.09;5078426;27;20046;-63
2022/05/14 03:44:38;;;;;;;2.95;1.85;;;;;;;13.25;48.71;98251.13;5044904;27;20039;-63
2022/05/14 03:47:03;;;;;;;5.78;1.80;;;;;;;13.36;48.40;98253.50;5096867;27;20034;-64
2022/05/14 03:49:28;;;;;;;3.28;1.67;;;;;;;13.47;48.18;98246.19;5062407;27;20489;-64
2022/05/14 03:51:53;;;;;;;5.85;2.55;;;;;;;13.59;48.29;98247.56;5097953;27;20039;-64
2022/05/14 03:54:19;;;;;;;5.10;1.42;;;;;;;13.70;47.69;98249.94;5097166;27;20042;-65
2022/05/14 03:56:43;;;;;;;2.78;1.77;;;;;;;13.81;46.99;98246.97;5061796;27;20092;-64
2022/05/14 03:59:10;;;;;;;5.18;1.92;;;;;;;13.96;47.02;98253.38;5073347;28;20050;-64
2022/05/14 04:01:37;;;;;;;4.80;1.35;;;;;;;14.01;46.70;98253.69;5058776;28;20447;-65
2022/05/14 04:04:03;;;;;;;4.47;2.20;;;;;;;14.04;46.50;98253.38;5058652;28;20134;-65
2022/05/14 04:06:28;;;;;;;3.00;1.50;;;;;;;14.11;46.92;98253.53;5058604;27;20035;-65
2022/05/14 04:08:53;;;;;;;3.45;1.90;;;;;;;14.16;46.56;98251.22;5073722;27;20051;-65
2022/05/14 04:11:18;;;;;;;3.80;2.10;;;;;;;14.34;46.21;98253.72;5045020;27;20046;-65
2022/05/14 04:13:43;;;;;;;4.80;1.98;;;;;;;14.57;46.02;98256.59;5078466;27;20513;-67
2022/05/14 04:16:11;;;;;;;4.70;2.08;;;;;;;14.80;45.64;98250.38;5096020;27;20130;-64
2022/05/14 04:18:37;;;;;;;2.83;2.13;;;;;;;14.93;44.67;98244.47;5063604;27;20062;-65
2022/05/14 04:21:04;;;;;;;4.75;1.92;;;;;;;15.04;44.27;98248.66;5061207;27;20421;-62
2022/05/14 04:23:31;;;;;;;2.47;1.67;;;;;;;15.16;43.85;98249.97;5078532;27;20095;-63
2022/05/14 04:25:58;;;;;;;1.63;1.50;;;;;;;15.20;43.53;98254.00;5065565;27;20065;-63
2022/05/14 04:28:23;;;;;;;4.38;2.40;;;;;;;15.47;43.16;98250.84;5084780;27;20060;-63
2022/05/14 04:30:48;;;;;;;2.30;1.40;;;;;;;15.70;42.87;98250.94;5080040;27;20054;-63
2022/05/14 04:33:15;;;;;;;1.38;1.20;;;;;;;15.83;42.79;98236.94;5071243;27;20552;-64
2022/05/14 04:35:40;;;;;;;4.95;2.03;;;;;;;15.97;42.14;98238.88;5096310;27;20123;-64
2022/05/14 04:38:05;;;;;;;2.65;1.77;;;;;;;15.98;42.13;98238.69;5071521;28;20071;-64
2022/05/14 04:40:30;;;;;;;2.00;1.65;;;;;;;15.94;42.07;98237.38;5043201;27;20050;-64
2022/05/14 04:42:55;;;;;;;2.45;1.60;;;;;;;15.84;41.86;98238.63;5067045;27;20042;-63
2022/05/14 04:45:20;;;;;;;1.80;0.98;;;;;;;15.79;41.94;98238.31;5095854;27;20043;-64
2022/05/14 04:47:45;;;;;;;5.75;1.60;;;;;;;15.88;42.21;98235.41;5061357;27;20142;-63
2022/05/14 04:50:12;;;;;;;1.85;1.70;;;;;;;16.13;41.85;98238.78;5061115;27;20126;-63
2022/05/14 04:52:37;;;;;;;2.47;1.50;;;;;;;16.51;41.28;98236.09;5077962;27;20038;-66
2022/05/14 04:55:02;;;;;;;6.20;1.92;;;;;;;16.96;40.74;98238.72;5077959;27;20122;-64
2022/05/14 04:57:28;;;;;;;2.35;1.63;;;;;;;17.48;39.42;98240.50;5059955;28;20099;-65
2022/05/14 04:59:53;;;;;;;3.90;1.60;;;;;;;17.95;38.48;98239.22;5077203;28;20039;-64
2022/05/14 05:05:03;;;;;;;3.67;1.77;;;;;;;18.97;36.46;98242.47;5058096;28;20086;-64
2022/05/14 05:07:28;;;;;;;4.55;1.92;;;;;;;19.09;36.02;98247.13;5076185;28;20047;-64
2022/05/14 05:09:54;;;;;;;3.13;1.50;;;;;;;19.11;36.51;98245.06;5057859;28;20490;-64
2022/05/14 05:12:18;;;;;;;3.03;2.03;;;;;;;19.05;36.18;98240.47;5057600;28;20465;-65
2022/05/14 05:14:43;;;;;;;4.38;2.08;;;;;;;18.74;36.33;98234.59;5061093;28;20589;-63
2022/05/14 05:17:08;;;;;;;3.03;1.60;;;;;;;18.68;36.21;98235.41;5058073;28;20584;-63
2022/05/14 05:19:33;;;;;;;9.18;1.90;;;;;;;18.82;36.43;98237.19;5041166;28;20607;-64
2022/05/14 05:21:58;;;;;;;2.35;1.50;;;;;;;19.01;36.07;98239.19;5040258;28;20067;-63
2022/05/14 05:24:23;;;;;;;3.38;1.52;;;;;;;19.21;35.43;98234.75;5076551;28;20036;-65
2022/05/14 05:26:48;;;;;;;13.18;2.88;;;;;;;19.50;34.60;98232.88;5059981;28;20039;-63
2022/05/14 05:29:12;;;;;;;5.65;2.10;;;;;;;19.73;34.63;98224.44;5059898;28;20095;-64
2022/05/14 05:31:39;;;;;;;2.47;1.75;;;;;;;19.91;34.04;98220.13;5057217;28;20181;-63
2022/05/14 05:34:03;;;;;;;3.90;2.03;;;;;;;20.19;33.38;98224.56;5075727;28;20100;-65
2022/05/14 05:36:30;;;;;;;3.58;1.80;;;;;;;20.37;32.82;98230.25;5057626;28;20043;-64
2022/05/14 05:38:54;;;;;;;1.88;1.73;;;;;;;20.69;32.45;98230.47;5075285;28;20035;-63
2022/05/14 05:41:20;;;;;;;3.13;2.08;;;;;;;21.10;31.91;98225.66;5057028;28;20100;-64
2022/05/14 05:43:46;;;;;;;2.75;2.03;;;;;;;21.60;31.15;98229.50;5075396;28;20084;-64
2022/05/14 05:46:11;;;;;;;3.28;1.98;;;;;;;22.48;30.14;98232.41;5057098;28;20046;-63
2022/05/14 05:48:36;;;;;;;2.92;1.85;;;;;;;22.95;29.33;98232.88;5075827;28;20180;-64
2022/05/14 05:51:00;;;;;;;2.15;1.40;;;;;;;23.55;28.64;98239.44;5057079;28;20130;-64
2022/05/14 05:56:46;;;;;;;1.90;1.67;;;;;;;23.69;27.69;98223.78;5057013;28;20192;-65
2022/05/14 05:58:53;;;;;;;4.95;1.35;;;;;;;22.40;29.04;98225.34;5075109;28;19916;-65
2022/05/14 06:01:17;;;;;;;4.45;1.40;;;;;;;21.85;29.90;98229.63;5040560;28;20058;-64
2022/05/14 06:03:42;;;;;;;2.08;1.77;;;;;;;21.72;30.13;98232.38;5075743;28;20131;-65
2022/05/14 06:06:07;;;;;;;1.85;1.67;;;;;;;22.48;29.52;98237.81;5076448;28;20478;-65
2022/05/14 06:08:32;;;;;;;3.33;2.25;;;;;;;23.31;27.78;98230.22;5079398;28;20438;-66
2022/05/14 06:10:56;;;;;;;3.00;2.05;;;;;;;24.41;27.07;98225.53;5060861;28;20054;-64
2022/05/14 06:13:21;;;;;;;2.45;1.52;;;;;;;25.78;25.22;98222.53;5079135;28;20052;-65
2022/05/14 06:15:46;;;;;;;5.20;1.65;;;;;;;26.78;23.57;98225.50;5026882;28;20051;-65
2022/05/14 06:18:11;;;;;;;1.35;1.30;;;;;;;27.50;22.35;98227.47;5060746;28;20039;-65
2022/05/14 06:20:38;;;;;;;2.65;1.95;;;;;;;28.29;21.45;98226.03;5079378;28;20043;-65
2022/05/14 06:23:03;;;;;;;2.35;1.83;;;;;;;29.00;20.94;98215.75;5078763;28;20051;-65
2022/05/14 06:25:28;;;;;;;2.85;1.88;;;;;;;29.81;20.38;98220.91;5078736;28;20043;-63
2022/05/14 06:27:52;;;;;;;2.90;2.20;;;;;;;30.32;19.56;98232.94;5077785;28;20494;-64
2022/05/14 06:30:17;;;;;;;4.30;2.40;;;;;;;30.66;19.16;98230.56;5078881;28;20467;-65
2022/05/14 06:32:43;;;;;;;3.17;2.08;;;;;;;30.48;18.79;98223.59;5079046;28;20077;-65
2022/05/14 06:35:09;;;;;;;3.28;2.30;;;;;;;30.90;19.09;98228.09;5078637;28;20387;-66
2022/05/14 06:37:34;;;;;;;4.57;3.78;;;;;;;31.47;18.34;98216.75;5060357;28;20379;-65
2022/05/14 06:39:59;;;;;;;2.95;2.20;;;;;;;32.07;17.51;98226.75;5078956;28;20401;-65
2022/05/14 06:42:24;;;;;;;2.10;1.98;;;;;;;32.38;17.51;98216.41;5079327;28;20031;-66
2022/05/14 06:44:48;;;;;;;7.85;2.90;;;;;;;32.37;17.59;98223.03;5061738;28;20081;-65
2022/05/14 06:47:13;;;;;;;5.05;2.45;;;;;;;32.43;17.01;98212.78;5061813;28;20063;-66
2022/05/14 06:49:38;;;;;;;4.47;2.35;;;;;;;32.16;16.97;98217.91;5082263;28;20108;-65
2022/05/14 06:52:05;;;;;;;4.20;2.50;;;;;;;32.75;16.45;98212.31;5078334;28;20039;-64
2022/05/14 06:54:32;;;;;;;3.38;2.50;;;;;;;33.53;15.46;98210.22;5084320;28;20051;-66
2022/05/14 06:56:57;;;;;;;8.25;2.90;;;;;;;33.77;15.69;98201.94;5071408;28;20039;-65
2022/05/14 06:59:22;;;;;;;7.13;2.85;;;;;;;34.06;15.70;98196.34;5067517;28;20527;-65
2022/05/14 07:01:47;;;;;;;3.85;2.83;;;;;;;33.88;16.31;98202.63;5079324;28;20447;-67
2022/05/14 07:06:58;;;;;;;7.55;2.85;;;;;;;31.95;16.38;98204.19;5065197;28;20047;-65
2022/05/14 07:09:27;;;;;;;6.25;2.70;;;;;;;31.22;17.38;98208.53;5060908;28;20043;-66
2022/05/14 07:11:58;;;;;;;2.55;2.08;;;;;;;30.40;17.29;98191.16;5078384;28;20134;-66
2022/05/14 07:14:24;;;;;;;3.33;2.50;;;;;;;29.34;18.48;98196.22;5044236;28;20140;-65
2022/05/14 07:16:50;;;;;;;2.58;2.38;;;;;;;29.77;18.37;98204.16;5038196;28;20040;-66
2022/05/14 07:19:15;;;;;;;4.43;2.67;;;;;;;30.13;17.97;98196.06;5036357;28;20048;-66
2022/05/14 07:21:42;;;;;;;2.90;2.60;;;;;;;30.14;17.75;98197.69;5036607;28;20503;-62
2022/05/14 07:24:10;;;;;;;8.95;3.60;;;;;;;30.30;17.69;98202.13;5036947;28;20041;-65
2022/05/14 07:26:37;;;;;;;2.50;2.30;;;;;;;30.06;17.99;98195.47;5038492;28;20048;-64
2022/05/14 07:29:11;;;;;;;4.65;2.63;;;;;;;30.62;16.88;98190.91;5020285;28;20282;-63
2022/05/14 07:31:36;;;;;;;6.70;2.63;;;;;;;30.79;17.73;98191.50;5036487;28;20040;-63
2022/05/14 07:34:02;;;;;;;5.40;2.15;;;;;;;31.01;16.78;98191.19;5037231;28;20413;-64
2022/05/14 07:36:29;;;;;;;7.75;3.08;;;;;;;30.91;17.06;98191.22;5037605;28;20044;-64
2022/05/14 07:38:58;;;;;;;5.85;2.97;;;;;;;30.73;16.91;98194.50;5036491;28;20563;-63
2022/05/14 07:41:26;;;;;;;5.85;2.80;;;;;;;31.18;16.19;98200.00;5037484;28;20040;-64
2022/05/14 07:43:54;;;;;;;3.83;2.40;;;;;;;31.11;15.80;98185.72;5019004;28;20062;-63
2022/05/14 07:46:26;;;;;;;3.97;3.15;;;;;;;31.30;15.37;98189.50;5035434;28;20518;-64
2022/05/14 07:48:51;;;;;;;2.63;2.42;;;;;;;31.96;14.98;98185.72;5035841;28;20518;-64
2022/05/14 07:51:16;;;;;;;14.45;3.08;;;;;;;31.95;15.24;98187.66;5035382;28;20478;-64
2022/05/14 07:53:41;;;;;;;5.25;2.55;;;;;;;31.81;15.20;98188.56;5037318;28;20546;-64
2022/05/14 07:56:08;;;;;;;3.13;2.50;;;;;;;30.55;16.09;98184.88;5037432;28;20070;-63
2022/05/14 07:58:33;;;;;;;3.97;2.88;;;;;;;29.76;16.79;98180.50;5038102;28;20048;-68
2022/05/14 08:00:58;;;;;;;4.85;2.83;;;;;;;30.45;16.26;98177.41;5036277;28;20059;-64
2022/05/14 08:03:24;;;;;;;6.82;2.90;;;;;;;30.90;16.31;98181.31;5034969;28;20135;-65
2022/05/14 08:05:51;;;;;;;4.65;2.80;;;;;;;30.40;15.89;98162.81;5034845;28;20118;-63
2022/05/14 08:08:16;;;;;;;5.68;2.60;;;;;;;31.13;15.36;98175.25;5018576;28;20210;-63
2022/05/14 08:10:40;;;;;;;4.13;3.67;;;;;;;31.10;15.69;98173.03;5036216;28;20051;-64
2022/05/14 08:13:05;;;;;;;5.80;2.35;;;;;;;29.29;17.17;98176.94;5039547;28;20048;-64
2022/05/14 08:15:30;;;;;;;5.00;3.08;;;;;;;28.24;18.45;98167.59;5064457;28;20040;-63
2022/05/14 08:17:55;;;;;;;4.03;2.90;;;;;;;27.84;18.85;98171.53;5085295;28;20529;-63
2022/05/14 08:20:21;;;;;;;6.25;2.70;;;;;;;27.03;19.36;98168.53;5078189;28;20043;-65
2022/05/14 08:25:31;;;;;;;5.07;2.38;;;;;;;24.52;21.24;98166.69;5076644;28;20398;-64
2022/05/14 08:27:56;;;;;;;6.65;2.45;;;;;;;23.67;22.30;98164.16;5076455;28;20054;-65
2022/05/14 08:30:24;;;;;;;4.53;2.20;;;;;;;22.71;23.53;98169.31;5057818;28;20096;-64
2022/05/14 08:32:49;;;;;;;5.68;2.13;;;;;;;21.96;24.31;98171.13;5076251;28;20534;-65
2022/05/14 08:35:16;;;;;;;12.02;3.60;;;;;;;21.48;24.96;98171.56;5058254;28;20063;-65
2022/05/14 08:37:40;;;;;;;8.30;3.00;;;;;;;20.86;26.04;98155.88;5080888;28;20047;-65
2022/05/14 08:40:24;;;;;;;2.60;2.40;;;;;;;21.52;26.28;98170.09;5063925;28;20068;-65
2022/05/14 08:42:56;;;;;;;8.07;1.80;;;;;;;23.36;23.91;98158.88;5078165;28;20039;-65
2022/05/14 08:45:24;;;;;;;6.53;2.42;;;;;;;23.91;22.74;98161.53;5058868;28;20043;-64
2022/05/14 08:47:58;;;;;;;4.75;2.55;;;;;;;23.69;22.68;98163.91;5058568;28;20517;-65
2022/05/14 08:50:30;;;;;;;4.35;2.65;;;;;;;22.71;23.97;98170.16;5076051;28;20035;-64
2022/05/14 08:53:01;;;;;;;3.85;2.40;;;;;;;21.79;24.92;98164.53;5040783;28;20044;-65
2022/05/14 08:55:36;;;;;;;7.10;2.83;;;;;;;21.12;26.81;98168.50;5075752;28;20051;-66
2022/05/14 08:58:11;;;;;;;4.50;2.95;;;;;;;20.58;27.18;98169.66;5042723;28;20048;-66
2022/05/14 09:00:36;;;;;;;7.30;2.30;;;;;;;20.15;27.27;98169.19;5059043;28;20525;-64
2022/05/14 09:03:02;;;;;;;5.22;2.33;;;;;;;19.78;28.15;98166.00;5058068;28;20054;-64
2022/05/14 09:05:34;;;;;;;4.75;3.30;;;;;;;19.46;29.08;98175.63;5058365;28;20088;-66
2022/05/14 09:08:01;;;;;;;10.50;2.60;;;;;;;19.22;29.57;98185.06;5075347;28;20097;-64
2022/05/14 09:10:32;;;;;;;4.03;2.38;;;;;;;19.11;29.83;98179.41;5075481;28;20497;-66
2022/05/14 09:13:08;;;;;;;5.25;2.60;;;;;;;18.91;30.28;98184.69;5040987;28;20046;-64
2022/05/14 09:15:33;;;;;;;3.40;2.10;;;;;;;18.68;30.89;98182.25;5080547;28;20164;-65
2022/05/14 09:18:11;;;;;;;4.38;2.30;;;;;;;18.72;30.63;98183.53;5061137;28;20119;-63
2022/05/14 09:20:50;;;;;;;9.55;3.33;;;;;;;18.66;31.26;98178.06;5041988;28;20473;-64
2022/05/14 09:23:33;;;;;;;4.63;3.08;;;;;;;18.89;30.94;98173.25;5076245;28;20043;-64
2022/05/14 09:26:02;;;;;;;4.18;2.00;;;;;;;20.13;29.36;98155.03;5075782;28;20453;-64
2022/05/14 09:28:39;;;;;;;5.30;2.53;;;;;;;22.62;26.71;98155.19;5057834;28;20043;-63
2022/05/14 09:31:04;;;;;;;2.80;2.05;;;;;;;25.45;23.29;98149.47;5075636;28;20048;-64
2022/05/14 09:33:40;;;;;;;5.85;2.53;;;;;;;27.93;20.50;98145.34;5056901;28;20054;-64
2022/05/14 09:36:05;;;;;;;4.75;2.60;;;;;;;30.48;18.42;98143.84;5056949;28;20043;-63
2022/05/14 09:38:30;;;;;;;6.38;2.72;;;;;;;31.94;16.87;98150.16;5057140;28;20046;-65
2022/05/14 09:41:09;;;;;;;6.10;2.83;;;;;;;31.36;16.81;98154.53;5074865;28;20067;-63
2022/05/14 09:43:37;;;;;;;4.97;2.55;;;;;;;29.07;18.94;98147.72;5074550;28;20047;-65
2022/05/14 09:46:10;;;;;;;4.20;3.03;;;;;;;28.15;20.28;98148.03;5058606;28;20100;-64
2022/05/14 09:48:43;;;;;;;7.78;2.90;;;;;;;28.12;19.79;98148.53;5077011;28;20044;-64
2022/05/14 09:51:09;;;;;;;5.45;2.67;;;;;;;30.16;18.50;98151.50;5057814;28;20075;-64
2022/05/14 09:53:39;;;;;;;5.20;2.70;;;;;;;30.84;17.09;98147.44;5058793;28;20501;-63
2022/05/14 09:56:14;;;;;;;7.95;2.90;;;;;;;29.92;17.04;98137.41;5078696;28;20336;-63
2022/05/14 09:59:10;;;;;;;4.47;2.67;;;;;;;28.45;19.30;98147.50;5058840;28;20082;-64
2022/05/14 10:01:45;;;;;;;5.28;2.65;;;;;;;26.69;20.14;98150.47;5041904;28;20067;-63
2022/05/14 10:04:32;;;;;;;5.10;2.55;;;;;;;25.32;22.22;98150.56;5077291;28;20116;-66
2022/05/14 10:07:14;;;;;;;5.05;2.25;;;;;;;24.08;24.16;98154.34;5058607;28;20402;-64
2022/05/14 10:10:12;;;;;;;5.95;2.80;;;;;;;23.10;25.39;98149.94;5057089;28;20040;-63
2022/05/14 10:12:45;;;;;;;7.00;3.13;;;;;;;22.12;26.85;98150.81;5075192;28;20044;-65
2022/05/14 10:15:31;;;;;;;6.63;3.55;;;;;;;22.81;26.84;98146.03;5056486;28;20422;-66
2022/05/14 10:18:09;;;;;;;6.53;3.60;;;;;;;25.60;23.33;98141.63;5039681;28;20047;-64
2022/05/14 10:20:55;;;;;;;5.03;2.97;;;;;;;28.85;20.26;98130.56;5039915;28;20050;-67
2022/05/14 10:26:51;;;;;;;5.25;2.72;;;;;;;30.83;17.21;98133.97;5075440;28;20130;-64
2022/05/14 10:29:56;;;;;;;4.60;3.13;;;;;;;29.79;18.37;98119.53;5075806;28;20104;-65
2022/05/14 10:32:25;;;;;;;5.05;3.05;;;;;;;28.09;19.23;98116.19;5056310;28;20364;-65
2022/05/14 10:35:05;;;;;;;2.40;2.20;;;;;;;26.52;19.43;98106.75;5056773;28;20036;-63
2022/05/14 10:37:35;;;;;;;3.55;2.47;;;;;;;24.95;21.20;98115.41;5074542;28;20040;-65
2022/05/14 10:40:25;;;;;;;6.72;2.92;;;;;;;23.80;22.57;98120.44;5056630;28;20044;-67
2022/05/14 10:42:53;;;;;;;8.43;2.67;;;;;;;23.00;23.90;98124.34;5074755;28;20039;-65
2022/05/14 10:45:23;;;;;;;2.80;2.17;;;;;;;22.23;24.84;98128.38;5056482;28;20489;-63
2022/05/14 10:48:14;;;;;;;5.22;2.47;;;;;;;22.00;25.34;98118.94;5057135;28;20043;-63
2022/05/14 10:50:39;;;;;;;5.22;2.08;;;;;;;21.52;26.02;98115.03;5075121;28;20043;-64
2022/05/14 10:53:08;;;;;;;3.78;2.65;;;;;;;21.25;26.70;98119.72;5077206;28;20043;-64
2022/05/14 10:55:43;;;;;;;5.00;2.25;;;;;;;20.91;27.36;98110.00;5078663;28;20053;-65
2022/05/14 10:58:08;;;;;;;2.97;2.13;;;;;;;20.62;27.04;98109.47;5059837;28;20050;-65
2022/05/14 11:00:41;;;;;;;3.38;1.83;;;;;;;20.39;27.30;98108.22;5060085;28;20043;-66
2022/05/14 11:03:24;;;;;;;5.28;2.10;;;;;;;20.20;28.08;98109.88;5059514;28;20467;-65
2022/05/14 11:06:02;;;;;;;2.78;2.00;;;;;;;19.91;28.69;98111.94;5078629;28;20431;-67
2022/05/14 11:08:34;;;;;;;5.07;2.10;;;;;;;19.88;28.31;98109.63;5042797;28;20051;-64
2022/05/14 11:11:21;;;;;;;2.80;1.88;;;;;;;19.90;28.17;98104.03;5078396;28;20031;-64
2022/05/14 11:14:07;;;;;;;6.18;2.22;;;;;;;19.93;28.10;98099.03;5076702;28;20062;-65
2022/05/14 11:16:39;;;;;;;5.15;2.10;;;;;;;19.96;27.97;98099.66;5042631;28;20134;-66
2022/05/14 11:19:04;;;;;;;7.97;2.00;;;;;;;20.17;27.68;98077.81;5059783;28;20040;-64
2022/05/14 11:21:40;;;;;;;5.50;2.67;;;;;;;20.25;26.86;98085.72;5077832;28;20050;-65
2022/05/14 11:24:06;;;;;;;4.82;1.75;;;;;;;20.25;27.12;98086.56;5077947;28;20039;-65
2022/05/14 11:26:47;;;;;;;4.32;2.35;;;;;;;20.51;27.01;98091.16;5059269;28;20145;-63
2022/05/14 11:29:18;;;;;;;6.97;2.00;;;;;;;20.55;26.48;98080.72;5079263;28;20048;-64
2022/05/14 11:32:11;;;;;;;4.10;2.20;;;;;;;20.69;25.88;98076.09;5061450;28;20043;-64
2022/05/14 11:34:37;;;;;;;8.63;2.45;;;;;;;20.40;26.65;98089.09;5077685;28;20043;-65
2022/05/14 11:37:05;;;;;;;5.68;2.22;;;;;;;20.57;26.22;98079.47;5078549;28;20043;-63
2022/05/14 11:39:37;;;;;;;3.35;2.15;;;;;;;20.71;26.40;98082.16;5061415;28;20051;-66
2022/05/14 11:42:30;;;;;;;4.45;2.30;;;;;;;20.66;26.70;98083.59;5090525;28;20516;-66
2022/05/14 11:45:01;;;;;;;4.15;2.33;;;;;;;20.27;26.35;98078.22;5091645;28;20047;-66
2022/05/14 11:47:46;;;;;;;2.28;1.90;;;;;;;20.27;26.32;98072.81;5093672;28;20040;-63
2022/05/14 11:50:13;;;;;;;7.53;2.22;;;;;;;20.04;27.12;98084.06;5091413;28;20039;-63
2022/05/14 11:52:50;;;;;;;8.30;2.75;;;;;;;19.87;27.46;98080.91;5070698;28;20486;-63
2022/05/14 11:55:15;;;;;;;6.40;2.17;;;;;;;19.72;27.69;98083.00;5082042;28;20094;-62
2022/05/14 11:57:55;;;;;;;15.18;3.50;;;;;;;19.74;27.63;98091.75;5049904;28;20067;-63
2022/05/14 12:00:27;;;;;;;2.08;1.50;;;;;;;19.78;27.68;98084.88;5059493;28;20047;-62
2022/05/14 12:03:15;;;;;;;5.72;2.40;;;;;;;19.90;27.75;98083.22;5077782;28;20083;-63